Time;durP1;ratioP1;P1;durP2;ratioP2;P2;SDS_P1;SDS_P2;PMS_P1;PMS_P2;Temp;Humidity;BMP_temperature;BMP_pressure;BME280_temperature;BME280_humidity;BME280_pressure;Samples;Min_cycle;Max_cycle;Signal;HPM_P1;HPM_P2
2022/05/22 00:00:57;;;;;;;2.33;2.33;;;11.10;96.50;;;;;;6056118;29;20712;-65
2022/05/22 00:04:03;;;;;;;2.47;2.47;;;11.00;96.60;;;;;;6056471;29;20240;-67
2022/05/22 00:07:11;;;;;;;2.30;2.30;;;11.00;97.10;;;;;;6058420;29;20230;-67
2022/05/22 00:10:17;;;;;;;2.33;2.22;;;11.00;97.30;;;;;;6057434;29;20244;-66
2022/05/22 00:13:23;;;;;;;2.88;2.78;;;11.00;97.60;;;;;;6055967;29;20210;-68
2022/05/22 00:16:37;;;;;;;5.85;2.10;;;10.90;97.60;;;;;;6056137;29;20267;-67
2022/05/22 00:19:43;;;;;;;2.70;2.50;;;10.90;98.10;;;;;;6056190;29;20240;-67
2022/05/22 00:22:50;;;;;;;2.50;2.25;;;10.90;97.80;;;;;;6057189;29;20210;-68
2022/05/22 00:25:57;;;;;;;2.55;2.45;;;10.90;98.10;;;;;;6056157;29;20256;-66
2022/05/22 00:29:03;;;;;;;4.32;2.30;;;10.80;98.50;;;;;;6056200;29;20260;-67
2022/05/22 00:32:09;;;;;;;3.13;2.38;;;10.80;98.60;;;;;;6057085;29;20206;-66
2022/05/22 00:35:15;;;;;;;2.10;2.10;;;10.80;98.10;;;;;;6056139;29;20241;-66
2022/05/22 00:38:22;;;;;;;2.30;2.30;;;10.70;98.10;;;;;;6057011;29;20217;-68
2022/05/22 00:41:27;;;;;;;2.22;2.10;;;10.70;97.90;;;;;;6061073;29;20244;-66
2022/05/22 00:44:32;;;;;;;2.13;2.13;;;10.60;98.40;;;;;;6075275;29;20328;-67
2022/05/22 00:47:38;;;;;;;2.50;2.40;;;10.70;98.50;;;;;;6061290;29;20230;-67
2022/05/22 00:50:47;;;;;;;2.40;2.30;;;10.70;98.60;;;;;;6060851;29;20229;-67
2022/05/22 00:54:01;;;;;;;2.28;2.28;;;10.70;98.70;;;;;;6060761;29;20210;-67
2022/05/22 00:57:12;;;;;;;3.03;2.05;;;10.70;98.60;;;;;;6060813;29;20576;-65
2022/05/22 01:00:21;;;;;;;2.20;2.10;;;10.70;98.30;;;;;;6060457;29;20242;-67
2022/05/22 01:03:33;;;;;;;2.33;2.20;;;10.60;98.20;;;;;;6075054;29;20216;-66
2022/05/22 01:06:39;;;;;;;2.30;2.30;;;10.60;98.20;;;;;;6060233;29;20241;-67
2022/05/22 01:09:54;;;;;;;2.30;2.20;;;10.50;98.10;;;;;;6074987;29;20234;-67
2022/05/22 01:13:00;;;;;;;2.17;2.10;;;10.60;98.30;;;;;;6074615;29;20558;-67
2022/05/22 01:16:07;;;;;;;2.20;2.10;;;10.60;98.50;;;;;;6073656;29;20263;-67
2022/05/22 01:19:17;;;;;;;2.22;2.22;;;10.60;98.50;;;;;;6074301;29;20237;-67
2022/05/22 01:22:23;;;;;;;2.00;1.98;;;10.60;98.30;;;;;;6074365;29;20216;-68
2022/05/22 01:25:29;;;;;;;2.22;2.22;;;10.50;98.20;;;;;;6074156;29;20238;-68
2022/05/22 01:28:35;;;;;;;2.75;2.55;;;10.50;99.70;;;;;;6074460;29;20210;-66
2022/05/22 01:31:42;;;;;;;2.60;2.50;;;10.40;99.70;;;;;;6059700;29;20249;-68
2022/05/22 01:34:48;;;;;;;6.38;2.40;;;10.40;99.80;;;;;;6073990;29;20692;-67
2022/05/22 01:37:58;;;;;;;4.43;2.45;;;10.40;99.60;;;;;;6074369;29;20679;-66
2022/05/22 01:41:06;;;;;;;10.00;2.72;;;10.50;99.70;;;;;;6073531;29;20363;-66
2022/05/22 01:44:19;;;;;;;2.63;2.53;;;10.50;99.90;;;;;;6073904;29;20244;-67
2022/05/22 01:47:25;;;;;;;2.65;2.55;;;10.50;99.90;;;;;;6074400;29;20234;-66
2022/05/22 01:50:32;;;;;;;9.07;2.67;;;10.50;99.90;;;;;;6071882;29;20663;-66
2022/05/22 01:53:39;;;;;;;5.43;2.50;;;10.50;99.90;;;;;;6074120;29;20210;-66
2022/05/22 01:56:46;;;;;;;3.90;2.33;;;10.50;99.90;;;;;;6072888;29;20233;-67
2022/05/22 01:59:53;;;;;;;2.55;2.45;;;10.40;99.90;;;;;;6073457;29;20241;-66
2022/05/22 02:03:02;;;;;;;2.50;2.40;;;10.40;99.90;;;;;;6073258;29;20241;-66
2022/05/22 02:06:12;;;;;;;6.07;2.70;;;10.40;99.90;;;;;;6072590;29;20250;-68
2022/05/22 02:09:18;;;;;;;3.38;3.20;;;10.40;99.90;;;;;;6058910;29;20238;-66
2022/05/22 02:12:28;;;;;;;2.60;2.50;;;10.40;99.90;;;;;;6073443;29;20221;-67
2022/05/22 02:15:34;;;;;;;5.07;2.60;;;10.30;99.90;;;;;;6072840;29;20233;-66
2022/05/22 02:18:39;;;;;;;2.28;2.28;;;10.30;99.90;;;;;;6073248;29;20221;-66
2022/05/22 02:21:45;;;;;;;2.85;2.33;;;10.30;99.90;;;;;;6072586;29;20293;-66
2022/05/22 02:24:54;;;;;;;5.10;2.80;;;10.30;99.90;;;;;;6072666;29;20697;-66
2022/05/22 02:28:01;;;;;;;2.92;2.70;;;10.30;99.90;;;;;;6073228;29;20230;-66
2022/05/22 02:31:08;;;;;;;2.67;2.58;;;10.30;99.90;;;;;;6072243;29;20656;-67
2022/05/22 02:34:13;;;;;;;7.20;2.85;;;10.30;99.90;;;;;;6057117;29;20238;-66
2022/05/22 02:37:19;;;;;;;2.53;2.38;;;10.30;99.90;;;;;;6073041;29;20221;-66
2022/05/22 02:40:30;;;;;;;2.88;2.38;;;10.30;99.90;;;;;;6072204;29;20233;-67
2022/05/22 02:43:35;;;;;;;3.45;2.70;;;10.30;99.90;;;;;;6072975;29;20236;-65
2022/05/22 02:46:43;;;;;;;6.22;2.60;;;10.30;99.90;;;;;;6072946;29;20714;-66
2022/05/22 02:49:49;;;;;;;4.18;2.40;;;10.30;99.90;;;;;;6056974;29;20237;-67
2022/05/22 02:52:55;;;;;;;6.35;2.38;;;10.30;99.90;;;;;;6058424;29;20221;-66
2022/05/22 02:56:10;;;;;;;5.40;3.15;;;10.20;99.90;;;;;;6072592;29;20237;-66
2022/05/22 02:59:35;;;;;;;4.15;2.72;;;10.20;99.90;;;;;;6058065;29;20242;-66
2022/05/22 03:02:47;;;;;;;4.43;2.88;;;10.20;99.90;;;;;;6070468;29;20218;-65
2022/05/22 03:09:19;;;;;;;3.17;3.08;;;10.10;99.90;;;;;;6048857;29;20254;-66
2022/05/22 03:12:30;;;;;;;3.30;3.00;;;10.10;99.90;;;;;;6050154;29;20216;-67
2022/05/22 03:15:39;;;;;;;3.47;3.08;;;10.10;99.90;;;;;;6072346;29;20242;-65
2022/05/22 03:18:45;;;;;;;3.38;2.85;;;10.00;99.90;;;;;;6071562;29;20240;-66
2022/05/22 03:21:56;;;;;;;3.75;3.40;;;10.00;99.90;;;;;;6072202;29;20218;-67
2022/05/22 03:25:04;;;;;;;3.28;2.60;;;10.00;99.90;;;;;;6055899;29;20249;-65
2022/05/22 03:28:13;;;;;;;2.90;2.70;;;10.10;99.90;;;;;;6056644;29;20230;-65
2022/05/22 03:31:20;;;;;;;4.63;2.50;;;10.10;99.90;;;;;;6056139;29;20210;-66
2022/05/22 03:34:26;;;;;;;9.40;3.30;;;10.10;99.90;;;;;;6055597;29;20245;-67
2022/05/22 03:37:34;;;;;;;6.53;3.00;;;10.10;99.90;;;;;;6056645;29;20210;-65
2022/05/22 03:40:46;;;;;;;3.00;2.90;;;10.10;99.90;;;;;;6071910;29;20637;-67
2022/05/22 03:43:53;;;;;;;6.25;3.00;;;10.20;99.90;;;;;;6071585;29;20548;-66
2022/05/22 03:47:11;;;;;;;3.13;2.80;;;10.10;99.90;;;;;;6071486;29;20232;-66
2022/05/22 03:50:47;;;;;;;3.08;3.05;;;10.20;99.90;;;;;;6071231;29;20248;-65
2022/05/22 03:53:59;;;;;;;5.03;3.35;;;10.30;99.90;;;;;;6071081;29;20242;-66
2022/05/22 03:57:12;;;;;;;3.42;3.00;;;10.30;99.90;;;;;;6071886;29;20210;-66
2022/05/22 04:00:23;;;;;;;4.40;3.17;;;10.50;99.90;;;;;;6071946;29;20615;-68
2022/05/22 04:03:31;;;;;;;3.10;3.00;;;10.50;99.90;;;;;;6070875;29;20238;-67
2022/05/22 04:06:36;;;;;;;3.38;3.03;;;10.60;99.90;;;;;;6071371;29;20669;-65
2022/05/22 04:09:43;;;;;;;2.75;2.65;;;10.70;99.90;;;;;;6070652;29;20246;-66
2022/05/22 04:12:52;;;;;;;3.15;2.85;;;10.70;99.90;;;;;;6070831;29;20236;-66
2022/05/22 04:15:59;;;;;;;3.28;3.03;;;10.80;99.90;;;;;;6071802;29;20206;-66
2022/05/22 04:19:05;;;;;;;4.38;2.78;;;10.80;99.90;;;;;;6072114;29;20246;-66
2022/05/22 04:22:11;;;;;;;2.88;2.60;;;10.80;99.90;;;;;;6072590;29;20214;-65
2022/05/22 04:25:21;;;;;;;2.95;2.75;;;10.90;99.90;;;;;;6071247;29;20690;-66
2022/05/22 04:28:44;;;;;;;2.85;2.75;;;11.00;99.90;;;;;;6070475;29;20268;-66
2022/05/22 04:32:00;;;;;;;5.57;2.97;;;11.00;99.90;;;;;;6073150;29;20315;-66
2022/05/22 04:35:16;;;;;;;3.70;2.95;;;11.20;99.90;;;;;;6057872;29;20269;-65
2022/05/22 04:38:22;;;;;;;2.67;2.67;;;11.20;99.90;;;;;;6072434;29;20237;-67
2022/05/22 04:41:28;;;;;;;2.90;2.80;;;11.20;99.90;;;;;;6072202;29;20662;-66
2022/05/22 04:44:34;;;;;;;3.90;2.60;;;11.30;99.90;;;;;;6071528;29;20241;-66
2022/05/22 04:48:14;;;;;;;2.55;2.45;;;11.30;99.90;;;;;;6053434;29;20237;-66
2022/05/22 04:51:32;;;;;;;2.78;2.67;;;11.10;99.90;;;;;;6072258;29;20571;-66
2022/05/22 04:54:41;;;;;;;3.55;2.08;;;11.10;99.80;;;;;;6071099;29;20661;-66
2022/05/22 04:57:46;;;;;;;2.78;2.65;;;11.20;99.70;;;;;;6070472;29;20218;-66
2022/05/22 05:00:53;;;;;;;2.00;2.00;;;11.30;99.40;;;;;;6072887;29;20213;-65
2022/05/22 05:04:00;;;;;;;2.50;2.40;;;11.40;98.90;;;;;;6075849;29;20240;-65
2022/05/22 05:07:10;;;;;;;2.60;2.20;;;11.40;98.70;;;;;;6075883;29;20213;-66
2022/05/22 05:10:34;;;;;;;2.50;2.30;;;11.50;98.80;;;;;;6057978;29;20665;-66
2022/05/22 05:13:55;;;;;;;2.92;2.58;;;11.40;98.90;;;;;;6071981;29;20234;-66
2022/05/22 05:17:00;;;;;;;2.60;2.50;;;11.30;99.10;;;;;;6073031;29;20325;-66
2022/05/22 05:20:09;;;;;;;6.05;3.35;;;11.40;99.10;;;;;;6058122;29;20249;-67
2022/05/22 05:23:26;;;;;;;3.08;2.40;;;11.50;99.40;;;;;;6072240;29;20238;-66
2022/05/22 05:26:43;;;;;;;2.90;2.20;;;11.50;98.90;;;;;;6075648;29;20210;-66
2022/05/22 05:29:52;;;;;;;2.70;2.40;;;11.50;98.60;;;;;;6076408;29;20619;-67
2022/05/22 05:32:58;;;;;;;2.70;2.50;;;11.50;98.20;;;;;;6061415;29;20214;-66
2022/05/22 05:36:44;;;;;;;3.83;2.30;;;11.50;98.40;;;;;;6061169;29;20687;-66
2022/05/22 05:40:08;;;;;;;1.80;1.80;;;11.60;97.40;;;;;;6075550;29;20257;-67
2022/05/22 05:43:20;;;;;;;2.47;2.38;;;11.60;96.70;;;;;;6060984;29;20261;-65
2022/05/22 05:46:25;;;;;;;2.47;2.28;;;11.60;96.30;;;;;;6076068;29;20214;-66
2022/05/22 05:49:32;;;;;;;2.95;2.10;;;11.70;96.30;;;;;;6075788;29;20257;-66
2022/05/22 05:53:04;;;;;;;2.20;2.20;;;11.70;96.40;;;;;;6075288;29;20221;-66
2022/05/22 05:56:21;;;;;;;2.58;2.20;;;11.70;96.00;;;;;;6061449;29;20211;-66
2022/05/22 05:59:33;;;;;;;2.10;2.08;;;11.70;96.60;;;;;;6060937;29;20287;-67
2022/05/22 06:02:46;;;;;;;2.58;2.58;;;11.80;96.00;;;;;;6060138;29;20249;-67
2022/05/22 06:05:51;;;;;;;2.00;2.00;;;11.80;95.90;;;;;;6075301;29;20234;-66
2022/05/22 06:09:06;;;;;;;1.80;1.80;;;11.80;96.30;;;;;;6074422;29;20704;-66
2022/05/22 06:12:30;;;;;;;2.00;2.00;;;11.80;96.00;;;;;;6061143;29;20202;-66
2022/05/22 06:15:41;;;;;;;2.40;1.98;;;11.70;95.10;;;;;;6074262;29;20244;-66
2022/05/22 06:18:47;;;;;;;2.15;2.00;;;11.80;96.00;;;;;;6074214;29;20241;-65
2022/05/22 06:21:53;;;;;;;2.03;1.98;;;11.80;95.20;;;;;;6074691;29;20213;-67
2022/05/22 06:25:00;;;;;;;2.10;2.00;;;11.90;94.70;;;;;;6072489;29;20329;-67
2022/05/22 06:28:12;;;;;;;2.10;2.10;;;12.00;95.50;;;;;;6058766;29;20241;-66
2022/05/22 06:31:36;;;;;;;2.03;1.98;;;12.10;95.00;;;;;;6058952;29;20226;-67
2022/05/22 06:34:44;;;;;;;2.03;1.92;;;12.10;94.90;;;;;;6058055;29;20686;-66
2022/05/22 06:39:49;;;;;;;1.98;1.98;;;12.00;94.20;;;;;;6057590;29;20260;-67
2022/05/22 06:41:56;;;;;;;2.60;2.40;;;12.00;94.80;;;;;;6072900;29;20218;-65
2022/05/22 06:45:23;;;;;;;2.28;2.13;;;12.10;95.00;;;;;;6058397;29;20245;-66
2022/05/22 06:48:51;;;;;;;2.47;1.88;;;12.10;94.80;;;;;;6048203;29;20601;-66
2022/05/22 06:52:22;;;;;;;2.33;2.22;;;12.20;94.40;;;;;;6072627;29;20580;-67
2022/05/22 06:55:33;;;;;;;2.20;2.20;;;12.30;93.40;;;;;;6072264;29;20248;-67
2022/05/22 06:59:04;;;;;;;1.80;1.80;;;12.30;92.80;;;;;;6072013;29;20241;-66
2022/05/22 07:02:28;;;;;;;2.08;2.08;;;12.30;92.70;;;;;;6071712;29;20304;-67
2022/05/22 07:06:03;;;;;;;4.60;1.90;;;12.30;92.50;;;;;;6059446;29;20245;-66
2022/05/22 07:09:26;;;;;;;1.83;1.83;;;12.40;92.60;;;;;;6071327;29;20241;-65
2022/05/22 07:12:44;;;;;;;2.20;2.08;;;12.60;92.60;;;;;;6072182;29;20264;-66
2022/05/22 07:16:12;;;;;;;3.88;1.92;;;12.60;90.80;;;;;;6056745;29;20218;-66
2022/05/22 07:19:42;;;;;;;1.98;1.98;;;12.50;89.60;;;;;;6071461;29;20236;-66
2022/05/22 07:23:07;;;;;;;2.00;1.90;;;12.60;88.90;;;;;;6056701;29;20229;-66
2022/05/22 07:26:21;;;;;;;1.77;1.77;;;12.70;86.20;;;;;;6072135;29;20575;-66
2022/05/22 07:29:59;;;;;;;2.20;2.20;;;12.80;85.70;;;;;;6047213;29;20237;-66
2022/05/22 07:33:20;;;;;;;1.80;1.80;;;12.80;87.90;;;;;;6073460;29;20646;-66
2022/05/22 07:36:56;;;;;;;2.65;2.10;;;12.90;85.70;;;;;;6050637;29;20214;-66
2022/05/22 07:40:19;;;;;;;1.90;1.90;;;12.80;86.60;;;;;;6057436;29;20637;-66
2022/05/22 07:43:55;;;;;;;1.73;1.70;;;12.90;85.60;;;;;;6070815;29;20257;-66
2022/05/22 07:47:29;;;;;;;2.20;2.10;;;13.00;85.40;;;;;;6060275;29;20567;-66
2022/05/22 07:50:57;;;;;;;1.80;1.80;;;13.00;84.20;;;;;;6069798;29;20230;-65
2022/05/22 07:54:22;;;;;;;2.15;2.15;;;12.90;82.80;;;;;;6056686;29;20259;-67
2022/05/22 07:57:47;;;;;;;2.85;1.90;;;13.00;84.60;;;;;;6071274;29;20673;-67
2022/05/22 08:01:19;;;;;;;2.28;1.80;;;13.00;81.80;;;;;;6054940;29;20222;-67
2022/05/22 08:04:54;;;;;;;2.13;1.92;;;12.90;81.50;;;;;;6047978;29;20250;-66
2022/05/22 08:08:14;;;;;;;1.70;1.70;;;13.00;81.30;;;;;;6070796;29;20234;-67
2022/05/22 08:11:45;;;;;;;1.83;1.83;;;13.10;81.70;;;;;;6055308;29;20233;-66
2022/05/22 08:14:52;;;;;;;1.90;1.80;;;13.20;83.20;;;;;;6070525;29;20234;-66
2022/05/22 08:17:57;;;;;;;2.13;2.13;;;13.20;80.60;;;;;;6056508;29;20218;-67
2022/05/22 08:21:03;;;;;;;2.10;2.00;;;13.30;83.40;;;;;;6070728;29;20553;-67
2022/05/22 08:24:14;;;;;;;2.20;1.70;;;13.30;81.10;;;;;;6070016;29;20245;-66
2022/05/22 08:27:21;;;;;;;1.90;1.90;;;13.40;79.60;;;;;;6070521;29;20206;-66
2022/05/22 08:30:30;;;;;;;2.03;1.85;;;13.50;80.60;;;;;;6070488;29;20602;-68
2022/05/22 08:33:35;;;;;;;1.90;1.80;;;13.50;77.20;;;;;;6070399;29;20252;-66
2022/05/22 08:36:41;;;;;;;2.53;2.33;;;13.50;78.40;;;;;;6055910;29;20220;-67
2022/05/22 08:39:48;;;;;;;2.00;2.00;;;13.50;77.30;;;;;;6056387;29;20686;-65
2022/05/22 08:43:02;;;;;;;1.80;1.80;;;13.70;78.50;;;;;;6069911;29;20624;-67
2022/05/22 08:46:13;;;;;;;1.90;1.90;;;13.80;75.80;;;;;;6056684;29;20221;-67
2022/05/22 08:49:28;;;;;;;2.08;2.08;;;13.90;75.30;;;;;;6055769;29;20248;-67
2022/05/22 08:52:42;;;;;;;1.77;1.70;;;13.90;72.70;;;;;;6055940;29;20230;-66
2022/05/22 08:59:20;;;;;;;1.80;1.70;;;14.00;65.70;;;;;;6070007;29;20242;-65
2022/05/22 09:02:33;;;;;;;2.22;2.20;;;13.90;65.60;;;;;;6060628;29;20571;-67
2022/05/22 09:05:40;;;;;;;1.80;1.70;;;14.10;67.80;;;;;;6059870;29;20288;-67
2022/05/22 09:08:50;;;;;;;1.80;1.80;;;14.10;61.60;;;;;;6060231;29;20245;-65
2022/05/22 09:12:28;;;;;;;2.42;1.77;;;14.00;62.20;;;;;;6060377;29;20276;-66
2022/05/22 09:15:42;;;;;;;1.77;1.77;;;14.10;63.00;;;;;;6060170;29;20263;-66
2022/05/22 09:18:58;;;;;;;2.15;1.98;;;14.10;61.30;;;;;;6060131;29;20245;-67
2022/05/22 09:22:13;;;;;;;1.92;1.90;;;14.20;58.60;;;;;;6060399;29;20569;-66
2022/05/22 09:25:29;;;;;;;4.07;2.13;;;14.30;58.80;;;;;;6060012;29;20267;-67
2022/05/22 09:28:46;;;;;;;2.17;1.90;;;14.30;57.70;;;;;;6059606;29;20233;-67
2022/05/22 09:31:59;;;;;;;2.67;2.58;;;14.40;57.30;;;;;;6074009;29;20224;-67
2022/05/22 09:35:15;;;;;;;1.88;1.80;;;14.40;54.80;;;;;;6059419;29;20244;-67
2022/05/22 09:38:50;;;;;;;3.08;1.80;;;14.30;54.70;;;;;;6074020;29;20233;-65
2022/05/22 09:42:06;;;;;;;1.75;1.65;;;14.30;55.40;;;;;;6059709;29;20214;-66
2022/05/22 09:45:29;;;;;;;4.13;2.30;;;14.40;53.80;;;;;;6058981;29;20257;-67
2022/05/22 09:48:51;;;;;;;2.25;2.25;;;14.50;55.30;;;;;;6058986;29;20255;-66
2022/05/22 09:52:05;;;;;;;1.95;1.85;;;14.50;55.40;;;;;;6059402;29;20210;-67
2022/05/22 09:55:33;;;;;;;3.10;2.40;;;14.60;56.40;;;;;;6058412;29;20325;-66
2022/05/22 09:59:07;;;;;;;2.58;2.10;;;14.60;54.30;;;;;;6059657;29;20232;-66
2022/05/22 10:02:21;;;;;;;2.22;2.13;;;14.60;55.30;;;;;;6057834;29;20220;-67
2022/05/22 10:05:38;;;;;;;2.13;2.13;;;14.50;55.00;;;;;;6059202;29;20269;-67
2022/05/22 10:08:57;;;;;;;1.90;1.80;;;14.80;54.90;;;;;;6059626;29;20253;-66
2022/05/22 10:12:17;;;;;;;2.05;1.98;;;14.80;53.30;;;;;;6058728;29;20214;-67
2022/05/22 10:15:53;;;;;;;1.80;1.80;;;14.70;53.00;;;;;;6073079;29;20238;-67
2022/05/22 10:19:17;;;;;;;1.92;1.70;;;14.90;53.00;;;;;;6073935;29;20245;-68
2022/05/22 10:22:29;;;;;;;1.98;1.98;;;14.90;52.80;;;;;;6060834;29;20221;-67
2022/05/22 10:25:49;;;;;;;3.05;1.67;;;14.60;50.70;;;;;;6060499;29;20281;-65
2022/05/22 10:28:58;;;;;;;4.63;2.25;;;14.70;52.70;;;;;;6063771;29;20600;-63
2022/05/22 10:32:10;;;;;;;2.00;1.90;;;14.50;51.30;;;;;;6070299;29;20214;-66
2022/05/22 10:35:26;;;;;;;1.83;1.83;;;14.70;53.40;;;;;;6070804;29;20275;-66
2022/05/22 10:38:35;;;;;;;2.10;2.00;;;14.80;53.00;;;;;;6061721;29;20238;-68
2022/05/22 10:45:23;;;;;;;1.73;1.73;;;14.90;53.10;;;;;;6057062;29;20649;-68
2022/05/22 10:48:31;;;;;;;1.60;1.60;;;14.90;51.90;;;;;;6057973;29;20241;-70
2022/05/22 10:51:38;;;;;;;2.75;1.90;;;15.00;51.60;;;;;;6058748;29;20216;-69
2022/05/22 10:54:47;;;;;;;2.00;1.90;;;15.10;51.70;;;;;;6057578;29;20237;-68
2022/05/22 10:58:00;;;;;;;1.60;1.60;;;15.20;51.30;;;;;;6057833;29;20626;-67
2022/05/22 11:01:16;;;;;;;1.95;1.77;;;15.40;50.60;;;;;;6057650;29;20210;-68
2022/05/22 11:04:22;;;;;;;3.22;2.20;;;15.50;49.90;;;;;;6057091;29;20234;-68
2022/05/22 11:07:32;;;;;;;1.55;1.55;;;15.70;49.30;;;;;;6057245;29;20210;-68
2022/05/22 11:10:38;;;;;;;1.90;1.80;;;15.60;47.60;;;;;;6057353;29;20237;-67
2022/05/22 11:13:45;;;;;;;1.92;1.48;;;15.60;48.80;;;;;;6057139;29;20553;-67
2022/05/22 11:16:51;;;;;;;1.45;1.45;;;15.50;48.20;;;;;;6057299;29;20214;-67
2022/05/22 11:19:58;;;;;;;3.72;1.60;;;15.60;47.60;;;;;;6057051;29;20238;-66
2022/05/22 11:23:16;;;;;;;1.75;1.42;;;15.60;48.90;;;;;;6056329;29;20245;-68
2022/05/22 11:26:34;;;;;;;2.88;1.60;;;15.60;47.70;;;;;;6057143;29;20563;-68
2022/05/22 11:30:01;;;;;;;1.80;1.77;;;15.60;47.20;;;;;;6070355;29;20701;-67
2022/05/22 11:33:24;;;;;;;1.90;1.80;;;15.60;47.30;;;;;;6056507;29;20237;-69
2022/05/22 11:36:44;;;;;;;1.77;1.67;;;15.60;47.20;;;;;;6057359;29;20210;-68
2022/05/22 11:40:07;;;;;;;1.98;1.88;;;15.50;46.10;;;;;;6056466;29;20242;-68
2022/05/22 11:43:52;;;;;;;1.50;1.50;;;15.40;45.80;;;;;;6056978;29;20234;-70
2022/05/22 11:47:12;;;;;;;1.85;1.40;;;15.50;44.90;;;;;;6038122;29;20550;-67
2022/05/22 11:50:31;;;;;;;1.70;1.70;;;15.60;45.70;;;;;;6056257;29;20244;-67
2022/05/22 11:54:08;;;;;;;1.55;1.50;;;15.60;46.30;;;;;;6056406;29;20708;-67
2022/05/22 11:57:27;;;;;;;2.00;1.80;;;15.90;46.90;;;;;;6056761;29;20218;-67
2022/05/22 12:00:40;;;;;;;2.15;1.95;;;15.80;44.90;;;;;;6057050;29;20304;-68
2022/05/22 12:04:06;;;;;;;1.60;1.55;;;15.80;46.80;;;;;;6056345;29;20672;-66
2022/05/22 12:07:59;;;;;;;2.38;1.63;;;16.00;46.50;;;;;;6056709;29;20203;-66
2022/05/22 12:11:13;;;;;;;1.80;1.70;;;16.10;46.30;;;;;;6008976;29;20215;-67
2022/05/22 12:14:28;;;;;;;2.25;1.80;;;16.00;45.00;;;;;;6056578;29;20256;-68
2022/05/22 12:17:39;;;;;;;1.60;1.45;;;15.90;45.10;;;;;;6056887;29;20206;-68
2022/05/22 12:20:49;;;;;;;1.75;1.65;;;15.90;44.80;;;;;;6056091;29;20246;-67
2022/05/22 12:23:58;;;;;;;1.60;1.60;;;15.90;45.30;;;;;;6056526;29;20260;-67
2022/05/22 12:27:14;;;;;;;3.90;1.70;;;15.90;44.60;;;;;;6056866;29;20218;-67
2022/05/22 12:30:26;;;;;;;1.50;1.50;;;15.90;46.00;;;;;;6056069;29;20238;-68
2022/05/22 12:33:35;;;;;;;1.73;1.73;;;15.80;47.10;;;;;;6056414;29;20230;-69
2022/05/22 12:36:47;;;;;;;1.90;1.80;;;15.90;46.00;;;;;;6055947;29;20288;-67
2022/05/22 12:40:14;;;;;;;2.08;2.08;;;16.00;45.90;;;;;;6070577;29;20240;-68
2022/05/22 12:43:23;;;;;;;2.10;2.00;;;16.10;45.80;;;;;;6055690;29;20664;-68
2022/05/22 12:46:30;;;;;;;2.63;2.00;;;16.00;45.00;;;;;;6056574;29;20214;-69
2022/05/22 12:49:35;;;;;;;1.90;1.80;;;15.90;45.90;;;;;;6055794;29;20230;-68
2022/05/22 12:52:41;;;;;;;1.70;1.70;;;16.00;46.20;;;;;;6056703;29;20210;-69
2022/05/22 12:55:47;;;;;;;1.92;1.75;;;16.00;45.40;;;;;;6055592;29;20238;-68
2022/05/22 12:58:56;;;;;;;8.77;2.30;;;16.00;45.30;;;;;;6055817;29;20356;-67
2022/05/22 13:02:04;;;;;;;1.63;1.60;;;15.90;46.40;;;;;;6055944;29;20210;-68
2022/05/22 13:05:18;;;;;;;2.22;2.10;;;16.00;45.40;;;;;;6055413;29;20250;-68
2022/05/22 13:08:29;;;;;;;2.95;1.83;;;16.10;46.60;;;;;;6070200;29;20230;-67
2022/05/22 13:11:43;;;;;;;2.03;1.90;;;16.30;46.60;;;;;;6056243;29;20210;-67
2022/05/22 13:15:16;;;;;;;1.75;1.75;;;16.30;45.10;;;;;;6055710;29;20244;-67
2022/05/22 13:18:23;;;;;;;2.75;1.90;;;16.30;45.80;;;;;;6056063;29;20568;-68
2022/05/22 13:21:32;;;;;;;4.22;1.90;;;16.40;45.90;;;;;;6056368;29;20214;-68
2022/05/22 13:24:38;;;;;;;4.22;2.20;;;16.60;46.80;;;;;;6055661;29;20245;-69
2022/05/22 13:27:43;;;;;;;1.90;1.90;;;16.60;45.50;;;;;;6055974;29;20210;-68
2022/05/22 13:30:51;;;;;;;2.95;2.10;;;16.60;45.70;;;;;;6055202;29;20218;-67
2022/05/22 13:34:16;;;;;;;4.15;2.20;;;16.70;45.80;;;;;;6069431;29;20253;-68
2022/05/22 13:37:28;;;;;;;2.05;1.95;;;17.50;44.30;;;;;;6056243;29;20226;-68
2022/05/22 13:40:40;;;;;;;2.50;2.05;;;17.90;43.50;;;;;;6055372;29;20252;-67
2022/05/22 13:44:30;;;;;;;2.10;2.10;;;18.00;43.10;;;;;;6055222;29;20241;-67
2022/05/22 13:48:30;;;;;;;1.83;1.83;;;17.30;43.40;;;;;;6043103;29;20679;-68
2022/05/22 13:55:22;;;;;;;2.00;1.83;;;17.40;42.90;;;;;;6059520;29;20242;-68
2022/05/22 13:58:30;;;;;;;1.77;1.67;;;17.00;42.70;;;;;;6059554;29;20240;-67
2022/05/22 14:01:41;;;;;;;1.90;1.80;;;16.90;43.00;;;;;;6074187;29;20617;-68
2022/05/22 14:04:48;;;;;;;3.13;2.03;;;16.60;42.70;;;;;;6058656;29;20258;-67
2022/05/22 14:07:55;;;;;;;2.90;2.20;;;16.30;42.90;;;;;;6058397;29;20209;-67
2022/05/22 14:11:12;;;;;;;2.00;1.90;;;16.40;43.80;;;;;;6058953;29;20264;-67
2022/05/22 14:14:23;;;;;;;1.88;1.88;;;16.50;43.20;;;;;;6058590;29;20248;-68
2022/05/22 14:17:33;;;;;;;2.45;2.00;;;16.30;43.80;;;;;;6059248;29;20230;-67
2022/05/22 14:20:42;;;;;;;1.67;1.67;;;16.40;44.30;;;;;;6058765;29;20241;-68
2022/05/22 14:27:27;;;;;;;3.17;2.05;;;16.50;44.30;;;;;;6059034;29;20217;-68
2022/05/22 14:30:35;;;;;;;2.53;1.85;;;16.30;43.70;;;;;;6058307;29;20242;-67
2022/05/22 14:33:40;;;;;;;1.90;1.90;;;16.20;43.80;;;;;;6058413;29;20226;-67
2022/05/22 14:36:51;;;;;;;1.70;1.70;;;16.30;43.70;;;;;;6059198;29;20238;-67
2022/05/22 14:39:58;;;;;;;1.75;1.23;;;16.30;42.70;;;;;;6058248;29;20233;-68
2022/05/22 14:43:04;;;;;;;2.72;1.80;;;17.40;40.70;;;;;;6058096;29;20216;-68
2022/05/22 14:46:16;;;;;;;1.77;1.40;;;18.40;37.50;;;;;;6058400;29;20218;-67
2022/05/22 14:49:28;;;;;;;2.25;2.05;;;18.90;34.80;;;;;;6058203;29;20555;-67
2022/05/22 14:52:36;;;;;;;1.80;1.70;;;18.80;33.10;;;;;;6058244;29;20221;-68
2022/05/22 14:55:45;;;;;;;1.83;1.83;;;18.10;31.90;;;;;;6057985;29;20633;-69
2022/05/22 14:59:01;;;;;;;1.90;1.80;;;17.50;32.50;;;;;;6057177;29;20237;-69
2022/05/22 15:02:11;;;;;;;2.83;1.80;;;17.10;31.80;;;;;;6058148;29;20593;-68
2022/05/22 15:05:20;;;;;;;1.60;1.60;;;16.70;31.60;;;;;;6057255;29;20249;-68
2022/05/22 15:08:29;;;;;;;5.30;1.90;;;16.40;31.50;;;;;;6057916;29;20319;-67
2022/05/22 15:11:45;;;;;;;1.73;1.73;;;16.30;31.90;;;;;;6058248;29;20212;-69
2022/05/22 15:14:53;;;;;;;1.70;1.70;;;16.30;31.80;;;;;;6058104;29;20250;-70
2022/05/22 15:18:05;;;;;;;1.85;1.70;;;16.30;31.80;;;;;;6058681;29;20321;-68
2022/05/22 15:21:11;;;;;;;4.97;1.80;;;16.10;31.00;;;;;;6058901;29;20210;-68
2022/05/22 15:27:53;;;;;;;1.60;1.60;;;15.90;30.80;;;;;;6047520;29;20214;-67
2022/05/22 15:31:16;;;;;;;1.90;1.75;;;15.80;31.60;;;;;;6057313;29;20214;-67
2022/05/22 15:34:26;;;;;;;2.30;1.88;;;15.80;31.60;;;;;;6057061;29;20245;-67
2022/05/22 15:37:34;;;;;;;1.60;1.60;;;16.00;31.40;;;;;;6057447;29;20234;-68
2022/05/22 15:40:46;;;;;;;2.17;1.75;;;15.90;31.30;;;;;;6056742;29;20715;-69
2022/05/22 15:43:55;;;;;;;2.03;1.90;;;16.00;30.90;;;;;;6057247;29;20242;-66
2022/05/22 15:47:05;;;;;;;4.97;2.00;;;16.00;30.40;;;;;;6057149;29;20218;-68
2022/05/22 15:53:40;;;;;;;2.83;2.50;;;15.90;30.70;;;;;;6057471;29;20264;-69
2022/05/22 15:56:46;;;;;;;2.10;2.10;;;15.70;31.10;;;;;;6057162;29;20210;-68
2022/05/22 15:59:53;;;;;;;2.97;2.97;;;15.70;31.10;;;;;;6058889;29;20252;-67
2022/05/22 16:02:59;;;;;;;2.00;1.90;;;15.70;30.80;;;;;;6058933;29;20764;-68
2022/05/22 16:06:05;;;;;;;1.90;1.80;;;15.70;30.20;;;;;;6065378;29;20749;-69
2022/05/22 16:09:11;;;;;;;1.90;1.90;;;15.70;30.30;;;;;;6078082;29;20301;-68
2022/05/22 16:12:17;;;;;;;1.75;1.70;;;15.70;30.20;;;;;;6077789;29;20278;-67
2022/05/22 16:15:24;;;;;;;1.80;1.70;;;15.60;30.00;;;;;;6081723;29;20309;-69
2022/05/22 16:18:34;;;;;;;1.70;1.70;;;15.50;29.50;;;;;;6070538;29;20242;-70
2022/05/22 16:21:43;;;;;;;1.73;1.73;;;15.50;29.10;;;;;;6058160;29;20210;-70
2022/05/22 16:24:48;;;;;;;1.70;1.60;;;15.50;28.90;;;;;;6056811;29;20339;-70
2022/05/22 16:27:53;;;;;;;2.22;1.80;;;15.40;28.40;;;;;;6056422;29;20229;-70
2022/05/22 16:31:00;;;;;;;1.80;1.80;;;15.30;28.20;;;;;;6056894;29;20236;-70
2022/05/22 16:34:09;;;;;;;2.03;1.90;;;15.30;28.00;;;;;;6056231;29;20242;-69
2022/05/22 16:37:14;;;;;;;4.10;2.03;;;15.20;28.50;;;;;;6057028;29;20221;-69
2022/05/22 16:40:20;;;;;;;1.80;1.70;;;15.20;27.50;;;;;;6056393;29;20715;-70
2022/05/22 16:43:26;;;;;;;2.00;2.00;;;15.20;27.80;;;;;;6069669;29;20229;-71
2022/05/22 16:46:33;;;;;;;3.55;1.98;;;15.00;27.00;;;;;;6056588;29;20209;-70
2022/05/22 16:53:04;;;;;;;1.60;1.60;;;15.00;26.60;;;;;;6055567;29;20210;-69
2022/05/22 16:56:12;;;;;;;2.35;2.03;;;14.90;26.00;;;;;;6055857;29;20214;-70
2022/05/22 16:59:21;;;;;;;1.88;1.80;;;15.00;27.40;;;;;;6056150;29;20242;-70
2022/05/22 17:02:30;;;;;;;2.20;2.10;;;14.80;26.60;;;;;;6056733;29;20214;-69
2022/05/22 17:05:39;;;;;;;1.90;1.90;;;14.80;26.10;;;;;;6055870;29;20246;-69
2022/05/22 17:08:49;;;;;;;2.35;2.10;;;14.90;25.30;;;;;;6055885;29;20693;-67
2022/05/22 17:11:58;;;;;;;2.40;2.30;;;14.90;25.70;;;;;;6055958;29;20213;-69
2022/05/22 17:15:05;;;;;;;2.45;2.30;;;14.80;25.40;;;;;;6056008;29;20234;-70